sensor_id;sensor_type;location;lat;lon;timestamp;pressure;altitude;pressure_sealevel;temperature;humidity
60465;BME280;46314;52.392;9.758;2023-03-20T00:01:44;100972.72;;;13.29;75.81
60465;BME280;46314;52.392;9.758;2023-03-20T00:04:13;100972.94;;;13.18;75.62
60465;BME280;46314;52.392;9.758;2023-03-20T00:06:39;100978.84;;;13.67;73.72
60465;BME280;46314;52.392;9.758;2023-03-20T00:09:06;100977.28;;;13.11;74.08
60465;BME280;46314;52.392;9.758;2023-03-20T00:11:34;100973.06;;;12.99;74.75
60465;BME280;46314;52.392;9.758;2023-03-20T00:14:03;100975.91;;;12.39;76.14
60465;BME280;46314;52.392;9.758;2023-03-20T00:16:32;100981.31;;;12.63;75.34
60465;BME280;46314;52.392;9.758;2023-03-20T00:18:59;100982.38;;;12.01;77.90
60465;BME280;46314;52.392;9.758;2023-03-20T00:21:27;100988.97;;;12.24;77.39
60465;BME280;46314;52.392;9.758;2023-03-20T00:23:54;100991.53;;;12.35;77.17
60465;BME280;46314;52.392;9.758;2023-03-20T00:26:24;100983.13;;;12.07;78.85
60465;BME280;46314;52.392;9.758;2023-03-20T00:28:51;100986.66;;;12.87;75.70
60465;BME280;46314;52.392;9.758;2023-03-20T00:31:23;100991.44;;;12.40;78.13
60465;BME280;46314;52.392;9.758;2023-03-20T00:33:50;100996.66;;;12.27;77.31
60465;BME280;46314;52.392;9.758;2023-03-20T00:36:16;101003.94;;;12.42;78.05
60465;BME280;46314;52.392;9.758;2023-03-20T00:38:44;101000.13;;;12.52;77.80
60465;BME280;46314;52.392;9.758;2023-03-20T00:41:20;100996.44;;;12.57;77.28
60465;BME280;46314;52.392;9.758;2023-03-20T00:43:48;100991.47;;;11.69;80.12
60465;BME280;46314;52.392;9.758;2023-03-20T00:46:16;100990.84;;;11.34;82.06
60465;BME280;46314;52.392;9.758;2023-03-20T00:48:42;100991.41;;;11.93;82.10
60465;BME280;46314;52.392;9.758;2023-03-20T00:51:09;100984.00;;;12.21;80.88
60465;BME280;46314;52.392;9.758;2023-03-20T00:53:36;100987.47;;;11.37;83.42
60465;BME280;46314;52.392;9.758;2023-03-20T00:56:05;100985.84;;;11.93;81.50
60465;BME280;46314;52.392;9.758;2023-03-20T00:58:31;100982.97;;;12.17;81.00
60465;BME280;46314;52.392;9.758;2023-03-20T01:00:58;100990.25;;;12.60;78.74
60465;BME280;46314;52.392;9.758;2023-03-20T01:03:25;100987.97;;;12.15;80.29
60465;BME280;46314;52.392;9.758;2023-03-20T01:05:52;100989.44;;;12.12;81.47
60465;BME280;46314;52.392;9.758;2023-03-20T01:08:19;100980.88;;;12.09;80.60
60465;BME280;46314;52.392;9.758;2023-03-20T01:10:49;100988.34;;;12.41;80.00
60465;BME280;46314;52.392;9.758;2023-03-20T01:13:20;100982.13;;;12.77;78.42
60465;BME280;46314;52.392;9.758;2023-03-20T01:15:48;100977.09;;;12.79;78.21
60465;BME280;46314;52.392;9.758;2023-03-20T01:18:16;100986.44;;;11.71;81.80
60465;BME280;46314;52.392;9.758;2023-03-20T01:20:43;100979.38;;;12.30;79.71
60465;BME280;46314;52.392;9.758;2023-03-20T01:23:09;100982.34;;;12.20;79.57
60465;BME280;46314;52.392;9.758;2023-03-20T01:25:36;100984.34;;;11.63;83.10
60465;BME280;46314;52.392;9.758;2023-03-20T01:28:11;100983.56;;;11.57;82.86
60465;BME280;46314;52.392;9.758;2023-03-20T01:30:40;100982.91;;;11.84;83.77
60465;BME280;46314;52.392;9.758;2023-03-20T01:33:11;100984.63;;;12.32;80.71
60465;BME280;46314;52.392;9.758;2023-03-20T01:35:38;100981.91;;;12.13;81.58
60465;BME280;46314;52.392;9.758;2023-03-20T01:38:10;100990.06;;;12.84;78.33
60465;BME280;46314;52.392;9.758;2023-03-20T01:40:43;100992.69;;;12.34;80.91
60465;BME280;46314;52.392;9.758;2023-03-20T01:43:16;100995.47;;;12.34;80.12
60465;BME280;46314;52.392;9.758;2023-03-20T01:45:52;101001.47;;;11.70;82.37
60465;BME280;46314;52.392;9.758;2023-03-20T01:48:20;101004.00;;;11.85;83.59
60465;BME280;46314;52.392;9.758;2023-03-20T01:50:48;101004.03;;;12.37;80.85
60465;BME280;46314;52.392;9.758;2023-03-20T01:53:17;101001.28;;;12.18;80.23
60465;BME280;46314;52.392;9.758;2023-03-20T01:55:46;101006.78;;;12.04;81.79
60465;BME280;46314;52.392;9.758;2023-03-20T01:58:17;101004.97;;;12.46;78.96
60465;BME280;46314;52.392;9.758;2023-03-20T02:00:46;101009.72;;;12.46;78.69
60465;BME280;46314;52.392;9.758;2023-03-20T02:03:14;101020.75;;;11.80;80.81
60465;BME280;46314;52.392;9.758;2023-03-20T02:05:42;101019.84;;;11.85;79.48
60465;BME280;46314;52.392;9.758;2023-03-20T02:08:15;101023.44;;;11.85;79.61
60465;BME280;46314;52.392;9.758;2023-03-20T02:10:44;101026.31;;;11.99;76.93
60465;BME280;46314;52.392;9.758;2023-03-20T02:13:12;101029.09;;;11.18;80.73
60465;BME280;46314;52.392;9.758;2023-03-20T02:15:57;101029.47;;;11.73;78.38
60465;BME280;46314;52.392;9.758;2023-03-20T02:18:23;101026.19;;;11.71;76.24
60465;BME280;46314;52.392;9.758;2023-03-20T02:21:07;101035.25;;;11.77;75.80
60465;BME280;46314;52.392;9.758;2023-03-20T02:24:08;101040.31;;;11.32;77.28
60465;BME280;46314;52.392;9.758;2023-03-20T02:26:51;101043.22;;;12.03;73.54
60465;BME280;46314;52.392;9.758;2023-03-20T02:29:42;101030.91;;;12.09;72.35
60465;BME280;46314;52.392;9.758;2023-03-20T02:32:57;101052.38;;;12.22;70.29
60465;BME280;46314;52.392;9.758;2023-03-20T02:35:54;101037.66;;;12.22;70.48
60465;BME280;46314;52.392;9.758;2023-03-20T02:38:50;101039.19;;;11.95;70.69
60465;BME280;46314;52.392;9.758;2023-03-20T02:41:24;101023.66;;;11.32;72.91
60465;BME280;46314;52.392;9.758;2023-03-20T02:43:59;101018.28;;;11.60;72.44
60465;BME280;46314;52.392;9.758;2023-03-20T02:46:33;101019.94;;;11.17;72.77
60465;BME280;46314;52.392;9.758;2023-03-20T02:49:08;101019.19;;;11.74;71.81
60465;BME280;46314;52.392;9.758;2023-03-20T02:51:39;101022.50;;;11.95;70.85
60465;BME280;46314;52.392;9.758;2023-03-20T02:54:15;101019.19;;;12.12;69.87
60465;BME280;46314;52.392;9.758;2023-03-20T02:56:49;101014.38;;;11.80;70.88
60465;BME280;46314;52.392;9.758;2023-03-20T02:59:26;101020.38;;;11.87;70.31
60465;BME280;46314;52.392;9.758;2023-03-20T03:01:59;101016.19;;;11.27;72.07
60465;BME280;46314;52.392;9.758;2023-03-20T03:04:30;101012.47;;;11.37;72.46
60465;BME280;46314;52.392;9.758;2023-03-20T03:06:57;101012.59;;;11.70;70.77
60465;BME280;46314;52.392;9.758;2023-03-20T03:09:29;101011.22;;;11.67;70.32
60465;BME280;46314;52.392;9.758;2023-03-20T03:12:01;101013.47;;;11.84;70.41
60465;BME280;46314;52.392;9.758;2023-03-20T03:14:32;101014.81;;;11.87;70.53
60465;BME280;46314;52.392;9.758;2023-03-20T03:17:03;101013.25;;;11.18;72.05
60465;BME280;46314;52.392;9.758;2023-03-20T03:19:32;101017.28;;;11.31;72.69
60465;BME280;46314;52.392;9.758;2023-03-20T03:22:00;101018.22;;;11.65;70.82
60465;BME280;46314;52.392;9.758;2023-03-20T03:24:30;101012.41;;;11.42;70.84
60465;BME280;46314;52.392;9.758;2023-03-20T03:27:12;101009.09;;;11.78;70.72
60465;BME280;46314;52.392;9.758;2023-03-20T03:29:41;101006.47;;;11.87;69.56
60465;BME280;46314;52.392;9.758;2023-03-20T03:32:21;101009.94;;;11.98;69.33
60465;BME280;46314;52.392;9.758;2023-03-20T03:34:48;101004.63;;;11.82;69.91
60465;BME280;46314;52.392;9.758;2023-03-20T03:37:23;101015.28;;;11.75;70.11
60465;BME280;46314;52.392;9.758;2023-03-20T03:40:01;101006.44;;;11.54;70.33
60465;BME280;46314;52.392;9.758;2023-03-20T03:42:32;101014.31;;;11.47;71.10
60465;BME280;46314;52.392;9.758;2023-03-20T03:45:05;101013.25;;;11.62;70.57
60465;BME280;46314;52.392;9.758;2023-03-20T03:47:38;101008.50;;;11.43;72.00
60465;BME280;46314;52.392;9.758;2023-03-20T03:50:11;101014.56;;;11.02;73.86
60465;BME280;46314;52.392;9.758;2023-03-20T03:52:40;101014.56;;;11.02;73.60
60465;BME280;46314;52.392;9.758;2023-03-20T03:55:12;101017.06;;;11.04;73.77
60465;BME280;46314;52.392;9.758;2023-03-20T03:57:41;101015.13;;;11.47;72.89
60465;BME280;46314;52.392;9.758;2023-03-20T04:00:13;101017.53;;;11.11;73.25
60465;BME280;46314;52.392;9.758;2023-03-20T04:02:43;101013.81;;;11.40;72.55
60465;BME280;46314;52.392;9.758;2023-03-20T04:05:12;101022.78;;;10.88;74.94
60465;BME280;46314;52.392;9.758;2023-03-20T04:07:43;101019.69;;;11.38;73.97
60465;BME280;46314;52.392;9.758;2023-03-20T04:10:12;101019.81;;;11.28;73.91
60465;BME280;46314;52.392;9.758;2023-03-20T04:12:40;101015.06;;;11.52;72.95
60465;BME280;46314;52.392;9.758;2023-03-20T04:15:07;101021.59;;;11.62;73.02
60465;BME280;46314;52.392;9.758;2023-03-20T04:17:34;101010.81;;;11.17;73.81
60465;BME280;46314;52.392;9.758;2023-03-20T04:20:01;101014.44;;;11.36;73.49
60465;BME280;46314;52.392;9.758;2023-03-20T04:22:27;101024.31;;;11.24;74.37
60465;BME280;46314;52.392;9.758;2023-03-20T04:24:53;101009.72;;;11.56;72.60
60465;BME280;46314;52.392;9.758;2023-03-20T04:27:21;101018.56;;;11.39;72.93
60465;BME280;46314;52.392;9.758;2023-03-20T04:29:47;101010.78;;;11.79;72.19
60465;BME280;46314;52.392;9.758;2023-03-20T04:32:14;101022.19;;;11.59;72.43
60465;BME280;46314;52.392;9.758;2023-03-20T04:34:40;101012.94;;;10.77;75.72
60465;BME280;46314;52.392;9.758;2023-03-20T04:37:07;101008.88;;;11.36;74.47
60465;BME280;46314;52.392;9.758;2023-03-20T04:39:33;101010.22;;;11.39;74.55
60465;BME280;46314;52.392;9.758;2023-03-20T04:42:00;101010.16;;;11.44;73.31
60465;BME280;46314;52.392;9.758;2023-03-20T04:44:27;101009.34;;;11.63;72.93
60465;BME280;46314;52.392;9.758;2023-03-20T04:46:54;101013.41;;;11.08;74.17
60465;BME280;46314;52.392;9.758;2023-03-20T04:49:21;101009.69;;;10.70;76.39
60465;BME280;46314;52.392;9.758;2023-03-20T04:51:47;101001.25;;;10.80;76.61
60465;BME280;46314;52.392;9.758;2023-03-20T04:54:13;101002.78;;;11.15;75.17
60465;BME280;46314;52.392;9.758;2023-03-20T04:56:40;101006.00;;;10.74;76.44
60465;BME280;46314;52.392;9.758;2023-03-20T04:59:06;101005.59;;;11.10;75.20
60465;BME280;46314;52.392;9.758;2023-03-20T05:01:34;100997.53;;;11.33;73.93
60465;BME280;46314;52.392;9.758;2023-03-20T05:04:00;101005.06;;;11.70;72.91
60465;BME280;46314;52.392;9.758;2023-03-20T05:06:27;100999.22;;;11.91;72.45
60465;BME280;46314;52.392;9.758;2023-03-20T05:08:54;100994.09;;;11.79;72.26
60465;BME280;46314;52.392;9.758;2023-03-20T05:11:20;100989.53;;;11.50;72.92
60465;BME280;46314;52.392;9.758;2023-03-20T05:13:46;100987.47;;;11.37;73.27
60465;BME280;46314;52.392;9.758;2023-03-20T05:16:13;100991.94;;;10.66;76.00
60465;BME280;46314;52.392;9.758;2023-03-20T05:18:41;100989.19;;;10.90;75.67
60465;BME280;46314;52.392;9.758;2023-03-20T05:21:07;100989.34;;;11.23;74.45
60465;BME280;46314;52.392;9.758;2023-03-20T05:23:34;100983.75;;;11.47;73.13
60465;BME280;46314;52.392;9.758;2023-03-20T05:26:01;100980.88;;;11.33;72.78
60465;BME280;46314;52.392;9.758;2023-03-20T05:28:27;100993.19;;;11.46;72.81
60465;BME280;46314;52.392;9.758;2023-03-20T05:30:54;100997.19;;;11.78;71.85
60465;BME280;46314;52.392;9.758;2023-03-20T05:33:21;100985.47;;;11.62;72.09
60465;BME280;46314;52.392;9.758;2023-03-20T05:35:49;100992.97;;;11.42;72.34
60465;BME280;46314;52.392;9.758;2023-03-20T05:38:15;100995.19;;;11.21;72.75
60465;BME280;46314;52.392;9.758;2023-03-20T05:40:42;100995.41;;;11.25;74.14
60465;BME280;46314;52.392;9.758;2023-03-20T05:43:08;101000.63;;;11.69;72.41
60465;BME280;46314;52.392;9.758;2023-03-20T05:45:34;100997.78;;;12.12;70.67
60465;BME280;46314;52.392;9.758;2023-03-20T05:48:01;101001.28;;;11.80;70.88
60465;BME280;46314;52.392;9.758;2023-03-20T05:50:28;100998.66;;;12.08;70.23
60465;BME280;46314;52.392;9.758;2023-03-20T05:52:55;101001.22;;;12.04;70.16
60465;BME280;46314;52.392;9.758;2023-03-20T05:55:22;100999.13;;;10.96;73.75
60465;BME280;46314;52.392;9.758;2023-03-20T05:57:48;101007.97;;;10.98;74.85
60465;BME280;46314;52.392;9.758;2023-03-20T06:00:16;100998.91;;;11.54;72.84
60465;BME280;46314;52.392;9.758;2023-03-20T06:02:42;100999.53;;;11.27;73.48
60465;BME280;46314;52.392;9.758;2023-03-20T06:05:12;101002.84;;;11.91;71.85
60465;BME280;46314;52.392;9.758;2023-03-20T06:07:39;101008.81;;;11.80;72.33
60465;BME280;46314;52.392;9.758;2023-03-20T06:10:08;101003.91;;;11.33;74.16
60465;BME280;46314;52.392;9.758;2023-03-20T06:12:35;101007.16;;;11.60;72.63
60465;BME280;46314;52.392;9.758;2023-03-20T06:15:01;101019.31;;;11.64;73.19
60465;BME280;46314;52.392;9.758;2023-03-20T06:17:28;101007.91;;;11.46;73.84
60465;BME280;46314;52.392;9.758;2023-03-20T06:19:54;101016.53;;;11.64;72.67
60465;BME280;46314;52.392;9.758;2023-03-20T06:22:21;101011.75;;;11.69;72.77
60465;BME280;46314;52.392;9.758;2023-03-20T06:24:47;101019.25;;;11.50;73.32
60465;BME280;46314;52.392;9.758;2023-03-20T06:27:15;101025.88;;;11.92;72.05
60465;BME280;46314;52.392;9.758;2023-03-20T06:29:41;101021.88;;;11.79;71.52
60465;BME280;46314;52.392;9.758;2023-03-20T06:32:08;101027.13;;;11.62;72.46
60465;BME280;46314;52.392;9.758;2023-03-20T06:34:34;101021.94;;;11.55;72.47
60465;BME280;46314;52.392;9.758;2023-03-20T06:37:00;101030.34;;;11.93;71.27
60465;BME280;46314;52.392;9.758;2023-03-20T06:39:27;101034.75;;;11.94;71.09
60465;BME280;46314;52.392;9.758;2023-03-20T06:41:53;101033.00;;;11.60;70.93
60465;BME280;46314;52.392;9.758;2023-03-20T06:44:21;101040.53;;;11.35;71.82
60465;BME280;46314;52.392;9.758;2023-03-20T06:46:48;101041.13;;;11.32;72.30
60465;BME280;46314;52.392;9.758;2023-03-20T06:49:14;101050.06;;;11.05;73.01
60465;BME280;46314;52.392;9.758;2023-03-20T06:51:41;101043.00;;;11.61;71.22
60465;BME280;46314;52.392;9.758;2023-03-20T06:54:07;101045.59;;;11.52;71.21
60465;BME280;46314;52.392;9.758;2023-03-20T06:56:34;101043.03;;;11.37;72.45
60465;BME280;46314;52.392;9.758;2023-03-20T06:59:00;101046.06;;;11.60;71.30
60465;BME280;46314;52.392;9.758;2023-03-20T07:01:28;101047.88;;;11.26;71.57
60465;BME280;46314;52.392;9.758;2023-03-20T07:03:54;101051.28;;;12.04;69.49
60465;BME280;46314;52.392;9.758;2023-03-20T07:06:21;101050.88;;;11.73;70.06
60465;BME280;46314;52.392;9.758;2023-03-20T07:08:47;101048.34;;;11.96;68.75
60465;BME280;46314;52.392;9.758;2023-03-20T07:11:14;101048.25;;;11.82;68.83
60465;BME280;46314;52.392;9.758;2023-03-20T07:13:40;101044.75;;;12.14;67.31
60465;BME280;46314;52.392;9.758;2023-03-20T07:16:07;101051.41;;;11.75;68.41
60465;BME280;46314;52.392;9.758;2023-03-20T07:18:35;101050.06;;;11.72;68.52
60465;BME280;46314;52.392;9.758;2023-03-20T07:21:03;101045.38;;;11.87;66.64
60465;BME280;46314;52.392;9.758;2023-03-20T07:23:31;101046.31;;;12.01;66.65
60465;BME280;46314;52.392;9.758;2023-03-20T07:25:57;101042.22;;;12.31;64.86
60465;BME280;46314;52.392;9.758;2023-03-20T07:28:24;101046.44;;;12.10;65.34
60465;BME280;46314;52.392;9.758;2023-03-20T07:30:50;101042.28;;;11.93;65.71
60465;BME280;46314;52.392;9.758;2023-03-20T07:33:17;101053.47;;;12.07;66.13
60465;BME280;46314;52.392;9.758;2023-03-20T07:35:45;101065.31;;;12.32;65.27
60465;BME280;46314;52.392;9.758;2023-03-20T07:38:12;101062.91;;;12.25;64.83
60465;BME280;46314;52.392;9.758;2023-03-20T07:40:38;101065.81;;;12.34;64.63
60465;BME280;46314;52.392;9.758;2023-03-20T07:43:04;101066.00;;;11.86;65.30
60465;BME280;46314;52.392;9.758;2023-03-20T07:45:31;101068.25;;;12.03;65.94
60465;BME280;46314;52.392;9.758;2023-03-20T07:47:57;101069.47;;;11.97;65.40
60465;BME280;46314;52.392;9.758;2023-03-20T07:50:24;101075.09;;;11.91;66.23
60465;BME280;46314;52.392;9.758;2023-03-20T07:52:52;101071.00;;;11.65;67.27
60465;BME280;46314;52.392;9.758;2023-03-20T07:55:18;101066.03;;;12.05;65.79
60465;BME280;46314;52.392;9.758;2023-03-20T07:57:46;101069.69;;;11.57;67.20
60465;BME280;46314;52.392;9.758;2023-03-20T08:00:14;101065.03;;;12.15;66.21
60465;BME280;46314;52.392;9.758;2023-03-20T08:02:41;101065.53;;;12.17;65.73
60465;BME280;46314;52.392;9.758;2023-03-20T08:05:08;101065.53;;;12.17;65.22
60465;BME280;46314;52.392;9.758;2023-03-20T08:07:34;101067.88;;;12.28;63.93
60465;BME280;46314;52.392;9.758;2023-03-20T08:10:03;101076.88;;;11.82;65.35
60465;BME280;46314;52.392;9.758;2023-03-20T08:12:29;101076.72;;;12.30;64.65
60465;BME280;46314;52.392;9.758;2023-03-20T08:14:55;101072.31;;;12.10;64.08
60465;BME280;46314;52.392;9.758;2023-03-20T08:17:22;101078.75;;;11.87;65.87
60465;BME280;46314;52.392;9.758;2023-03-20T08:19:49;101085.66;;;12.27;64.41
60465;BME280;46314;52.392;9.758;2023-03-20T08:22:15;101075.63;;;12.12;64.82
60465;BME280;46314;52.392;9.758;2023-03-20T08:24:42;101077.00;;;12.48;64.26
60465;BME280;46314;52.392;9.758;2023-03-20T08:27:10;101080.47;;;12.40;64.09
60465;BME280;46314;52.392;9.758;2023-03-20T08:29:37;101081.81;;;11.85;66.19
60465;BME280;46314;52.392;9.758;2023-03-20T08:32:04;101079.22;;;11.94;65.08
60465;BME280;46314;52.392;9.758;2023-03-20T08:34:31;101077.00;;;11.53;66.65
60465;BME280;46314;52.392;9.758;2023-03-20T08:36:57;101075.94;;;11.68;66.31
60465;BME280;46314;52.392;9.758;2023-03-20T08:39:24;101081.41;;;12.35;65.01
60465;BME280;46314;52.392;9.758;2023-03-20T08:41:50;101083.97;;;11.93;65.27
60465;BME280;46314;52.392;9.758;2023-03-20T08:44:18;101100.31;;;11.52;66.73
60465;BME280;46314;52.392;9.758;2023-03-20T08:46:44;101093.63;;;11.77;65.55
60465;BME280;46314;52.392;9.758;2023-03-20T08:49:11;101097.19;;;12.21;64.48
60465;BME280;46314;52.392;9.758;2023-03-20T08:51:37;101107.00;;;11.75;65.86
60465;BME280;46314;52.392;9.758;2023-03-20T08:54:04;101102.63;;;11.69;65.46
60465;BME280;46314;52.392;9.758;2023-03-20T08:56:30;101101.56;;;11.16;67.13
60465;BME280;46314;52.392;9.758;2023-03-20T08:58:57;101109.09;;;11.40;66.72
60465;BME280;46314;52.392;9.758;2023-03-20T09:01:24;101100.34;;;11.28;66.57
60465;BME280;46314;52.392;9.758;2023-03-20T09:04:07;101104.19;;;11.56;65.51
60465;BME280;46314;52.392;9.758;2023-03-20T09:06:35;101104.56;;;11.92;64.53
60465;BME280;46314;52.392;9.758;2023-03-20T09:09:02;101098.84;;;11.60;65.46
60465;BME280;46314;52.392;9.758;2023-03-20T09:11:28;101098.50;;;11.85;63.90
60465;BME280;46314;52.392;9.758;2023-03-20T09:13:55;101105.19;;;11.41;65.18
60465;BME280;46314;52.392;9.758;2023-03-20T09:16:21;101107.81;;;11.75;64.95
60465;BME280;46314;52.392;9.758;2023-03-20T09:18:49;101108.38;;;11.53;65.06
60465;BME280;46314;52.392;9.758;2023-03-20T09:21:16;101098.38;;;11.96;63.47
60465;BME280;46314;52.392;9.758;2023-03-20T09:23:43;101105.44;;;11.88;64.36
60465;BME280;46314;52.392;9.758;2023-03-20T09:26:09;101107.19;;;12.22;63.29
60465;BME280;46314;52.392;9.758;2023-03-20T09:28:36;101116.63;;;11.59;65.01
60465;BME280;46314;52.392;9.758;2023-03-20T09:31:03;101108.81;;;11.42;65.52
60465;BME280;46314;52.392;9.758;2023-03-20T09:33:29;101115.97;;;11.91;64.04
60465;BME280;46314;52.392;9.758;2023-03-20T09:35:57;101118.44;;;11.49;65.43
60465;BME280;46314;52.392;9.758;2023-03-20T09:38:23;101119.22;;;12.17;63.51
60465;BME280;46314;52.392;9.758;2023-03-20T09:40:52;101116.66;;;12.02;63.51
60465;BME280;46314;52.392;9.758;2023-03-20T09:43:32;101107.03;;;12.13;63.34
60465;BME280;46314;52.392;9.758;2023-03-20T09:46:11;101115.00;;;12.39;62.87
60465;BME280;46314;52.392;9.758;2023-03-20T09:48:42;101121.41;;;12.72;60.60
60465;BME280;46314;52.392;9.758;2023-03-20T09:51:18;101115.13;;;12.80;60.16
60465;BME280;46314;52.392;9.758;2023-03-20T09:53:48;101116.72;;;12.35;61.17
60465;BME280;46314;52.392;9.758;2023-03-20T09:56:19;101116.84;;;12.43;59.86
60465;BME280;46314;52.392;9.758;2023-03-20T09:58:51;101116.50;;;12.31;60.65
60465;BME280;46314;52.392;9.758;2023-03-20T10:01:21;101111.41;;;11.76;61.82
60465;BME280;46314;52.392;9.758;2023-03-20T10:03:52;101118.72;;;12.48;60.03
60465;BME280;46314;52.392;9.758;2023-03-20T10:06:22;101116.47;;;12.83;58.42
60465;BME280;46314;52.392;9.758;2023-03-20T10:08:48;101115.97;;;12.81;57.82
60465;BME280;46314;52.392;9.758;2023-03-20T10:11:33;101115.13;;;12.47;58.21
60465;BME280;46314;52.392;9.758;2023-03-20T10:14:12;101119.69;;;12.57;58.42
60465;BME280;46314;52.392;9.758;2023-03-20T10:16:50;101118.63;;;12.72;57.96
60465;BME280;46314;52.392;9.758;2023-03-20T10:19:22;101118.63;;;12.72;58.75
60465;BME280;46314;52.392;9.758;2023-03-20T10:21:56;101116.38;;;12.55;58.74
60465;BME280;46314;52.392;9.758;2023-03-20T10:24:28;101119.16;;;12.55;58.63
60465;BME280;46314;52.392;9.758;2023-03-20T10:27:00;101117.88;;;12.66;58.48
60465;BME280;46314;52.392;9.758;2023-03-20T10:29:39;101120.88;;;12.70;57.97
60465;BME280;46314;52.392;9.758;2023-03-20T10:32:16;101117.97;;;12.61;56.97
60465;BME280;46314;52.392;9.758;2023-03-20T10:35:01;101115.78;;;12.58;57.08
60465;BME280;46314;52.392;9.758;2023-03-20T10:37:38;101110.66;;;13.12;55.48
60465;BME280;46314;52.392;9.758;2023-03-20T10:40:19;101116.34;;;13.76;53.81
60465;BME280;46314;52.392;9.758;2023-03-20T10:42:50;101115.53;;;13.90;52.31
60465;BME280;46314;52.392;9.758;2023-03-20T10:45:27;101105.16;;;14.04;51.66
60465;BME280;46314;52.392;9.758;2023-03-20T10:47:56;101110.34;;;13.14;53.09
60465;BME280;46314;52.392;9.758;2023-03-20T10:50:27;101101.41;;;13.58;52.76
60465;BME280;46314;52.392;9.758;2023-03-20T10:52:58;101102.50;;;13.85;51.75
60465;BME280;46314;52.392;9.758;2023-03-20T10:55:27;101102.13;;;13.50;53.12
60465;BME280;46314;52.392;9.758;2023-03-20T10:57:59;101097.38;;;12.76;54.61
60465;BME280;46314;52.392;9.758;2023-03-20T11:00:28;101111.28;;;13.23;53.93
60465;BME280;46314;52.392;9.758;2023-03-20T11:02:54;101102.53;;;13.71;50.90
60465;BME280;46314;52.392;9.758;2023-03-20T11:05:23;101107.84;;;12.98;52.53
60465;BME280;46314;52.392;9.758;2023-03-20T11:08:00;101109.97;;;13.62;51.19
60465;BME280;46314;52.392;9.758;2023-03-20T11:10:30;101103.16;;;13.54;51.52
60465;BME280;46314;52.392;9.758;2023-03-20T11:12:57;101103.97;;;13.27;51.21
60465;BME280;46314;52.392;9.758;2023-03-20T11:15:25;101097.38;;;13.51;51.04
60465;BME280;46314;52.392;9.758;2023-03-20T11:17:53;101082.94;;;13.49;51.19
60465;BME280;46314;52.392;9.758;2023-03-20T11:20:21;101089.97;;;13.96;49.04
60465;BME280;46314;52.392;9.758;2023-03-20T11:22:48;101080.75;;;14.10;48.96
60465;BME280;46314;52.392;9.758;2023-03-20T11:25:28;101086.47;;;13.40;50.44
60465;BME280;46314;52.392;9.758;2023-03-20T11:27:56;101081.38;;;13.70;50.77
60465;BME280;46314;52.392;9.758;2023-03-20T11:30:23;101083.44;;;13.51;50.76
60465;BME280;46314;52.392;9.758;2023-03-20T11:32:53;101081.69;;;13.55;50.63
60465;BME280;46314;52.392;9.758;2023-03-20T11:35:26;101080.63;;;13.09;51.73
60465;BME280;46314;52.392;9.758;2023-03-20T11:37:55;101072.00;;;13.24;51.86
60465;BME280;46314;52.392;9.758;2023-03-20T11:40:34;101077.59;;;12.78;52.74
60465;BME280;46314;52.392;9.758;2023-03-20T11:43:03;101072.50;;;13.13;52.23
60465;BME280;46314;52.392;9.758;2023-03-20T11:45:34;101073.81;;;12.87;51.87
60465;BME280;46314;52.392;9.758;2023-03-20T11:48:02;101079.47;;;12.82;52.04
60465;BME280;46314;52.392;9.758;2023-03-20T11:50:31;101074.97;;;12.35;53.07
60465;BME280;46314;52.392;9.758;2023-03-20T11:52:59;101070.41;;;12.44;53.19
60465;BME280;46314;52.392;9.758;2023-03-20T11:55:28;101059.00;;;13.34;51.50
60465;BME280;46314;52.392;9.758;2023-03-20T11:57:58;101051.72;;;13.05;51.14
60465;BME280;46314;52.392;9.758;2023-03-20T12:00:27;101048.16;;;13.46;50.82
60465;BME280;46314;52.392;9.758;2023-03-20T12:02:55;101040.38;;;14.07;48.71
60465;BME280;46314;52.392;9.758;2023-03-20T12:05:32;101036.09;;;13.87;47.30
60465;BME280;46314;52.392;9.758;2023-03-20T12:08:01;101036.59;;;13.53;48.27
60465;BME280;46314;52.392;9.758;2023-03-20T12:10:33;101039.47;;;13.06;49.25
60465;BME280;46314;52.392;9.758;2023-03-20T12:13:05;101039.63;;;12.68;49.09
60465;BME280;46314;52.392;9.758;2023-03-20T12:15:39;101034.50;;;12.89;49.00
60465;BME280;46314;52.392;9.758;2023-03-20T12:18:09;101033.91;;;13.06;48.14
60465;BME280;46314;52.392;9.758;2023-03-20T12:20:40;101045.41;;;12.72;49.23
60465;BME280;46314;52.392;9.758;2023-03-20T12:23:12;101043.81;;;12.98;48.71
60465;BME280;46314;52.392;9.758;2023-03-20T12:25:43;101049.00;;;13.33;48.58
60465;BME280;46314;52.392;9.758;2023-03-20T12:28:19;101045.66;;;13.31;48.30
60465;BME280;46314;52.392;9.758;2023-03-20T12:30:57;101048.75;;;13.01;48.68
60465;BME280;46314;52.392;9.758;2023-03-20T12:33:36;101045.50;;;12.53;49.27
60465;BME280;46314;52.392;9.758;2023-03-20T12:36:11;101044.63;;;12.85;47.72
60465;BME280;46314;52.392;9.758;2023-03-20T12:38:38;101027.94;;;12.52;48.61
60465;BME280;46314;52.392;9.758;2023-03-20T12:41:11;101039.84;;;12.72;47.29
60465;BME280;46314;52.392;9.758;2023-03-20T12:43:48;101041.09;;;12.79;48.16
60465;BME280;46314;52.392;9.758;2023-03-20T12:46:26;101035.88;;;13.05;47.32
60465;BME280;46314;52.392;9.758;2023-03-20T12:49:07;101036.72;;;13.48;46.56
60465;BME280;46314;52.392;9.758;2023-03-20T12:51:45;101039.13;;;12.80;47.05
60465;BME280;46314;52.392;9.758;2023-03-20T12:54:26;101036.03;;;12.67;48.11
60465;BME280;46314;52.392;9.758;2023-03-20T12:57:02;101031.94;;;13.06;47.26
60465;BME280;46314;52.392;9.758;2023-03-20T12:59:39;101034.00;;;13.56;46.42
60465;BME280;46314;52.392;9.758;2023-03-20T13:02:17;101027.69;;;13.51;46.24
60465;BME280;46314;52.392;9.758;2023-03-20T13:04:53;101029.75;;;13.17;47.09